sensor_id;sensor_type;location;lat;lon;timestamp;P1;durP1;ratioP1;P2;durP2;ratioP2
18399;SDS011;9326;49.468;11.008;2022-12-26T00:01:22;7.93;;;7.23;;
18399;SDS011;9326;49.468;11.008;2022-12-26T00:03:50;6.77;;;6.07;;
18399;SDS011;9326;49.468;11.008;2022-12-26T00:06:18;7.70;;;6.20;;
18399;SDS011;9326;49.468;11.008;2022-12-26T00:08:47;8.77;;;6.37;;
18399;SDS011;9326;49.468;11.008;2022-12-26T00:11:15;7.53;;;6.43;;
18399;SDS011;9326;49.468;11.008;2022-12-26T00:13:43;5.80;;;5.30;;
18399;SDS011;9326;49.468;11.008;2022-12-26T00:16:11;8.27;;;5.97;;
18399;SDS011;9326;49.468;11.008;2022-12-26T00:18:38;5.07;;;4.57;;
18399;SDS011;9326;49.468;11.008;2022-12-26T00:21:05;6.00;;;4.57;;
18399;SDS011;9326;49.468;11.008;2022-12-26T00:23:33;6.23;;;5.53;;
18399;SDS011;9326;49.468;11.008;2022-12-26T00:26:02;7.13;;;5.23;;
18399;SDS011;9326;49.468;11.008;2022-12-26T00:28:29;5.93;;;3.70;;
18399;SDS011;9326;49.468;11.008;2022-12-26T00:30:56;6.30;;;4.77;;
18399;SDS011;9326;49.468;11.008;2022-12-26T00:33:23;3.77;;;3.40;;
18399;SDS011;9326;49.468;11.008;2022-12-26T00:35:50;5.00;;;4.30;;
18399;SDS011;9326;49.468;11.008;2022-12-26T00:38:17;4.67;;;3.90;;
18399;SDS011;9326;49.468;11.008;2022-12-26T00:40:44;4.83;;;4.33;;
18399;SDS011;9326;49.468;11.008;2022-12-26T00:43:12;6.17;;;4.60;;
18399;SDS011;9326;49.468;11.008;2022-12-26T00:45:43;6.40;;;5.33;;
18399;SDS011;9326;49.468;11.008;2022-12-26T00:48:10;7.23;;;5.20;;
18399;SDS011;9326;49.468;11.008;2022-12-26T00:50:37;5.70;;;5.10;;
18399;SDS011;9326;49.468;11.008;2022-12-26T00:53:04;5.17;;;4.17;;
18399;SDS011;9326;49.468;11.008;2022-12-26T00:55:31;4.37;;;3.93;;
18399;SDS011;9326;49.468;11.008;2022-12-26T00:57:58;4.33;;;3.70;;
18399;SDS011;9326;49.468;11.008;2022-12-26T06:01:39;2.37;;;2.17;;
18399;SDS011;9326;49.468;11.008;2022-12-26T06:04:06;2.83;;;2.27;;
18399;SDS011;9326;49.468;11.008;2022-12-26T06:06:33;3.57;;;2.20;;
18399;SDS011;9326;49.468;11.008;2022-12-26T06:09:00;2.47;;;2.27;;
18399;SDS011;9326;49.468;11.008;2022-12-26T06:11:27;1.90;;;1.80;;
18399;SDS011;9326;49.468;11.008;2022-12-26T06:13:54;2.37;;;2.10;;
18399;SDS011;9326;49.468;11.008;2022-12-26T06:16:22;2.77;;;2.43;;
18399;SDS011;9326;49.468;11.008;2022-12-26T06:18:52;3.00;;;2.13;;
18399;SDS011;9326;49.468;11.008;2022-12-26T06:21:20;2.37;;;2.17;;
18399;SDS011;9326;49.468;11.008;2022-12-26T06:23:47;2.80;;;2.20;;
18399;SDS011;9326;49.468;11.008;2022-12-26T06:26:15;2.43;;;2.20;;
18399;SDS011;9326;49.468;11.008;2022-12-26T06:28:42;2.53;;;2.23;;
18399;SDS011;9326;49.468;11.008;2022-12-26T06:31:11;3.50;;;2.30;;
18399;SDS011;9326;49.468;11.008;2022-12-26T06:33:39;2.60;;;2.40;;
18399;SDS011;9326;49.468;11.008;2022-12-26T06:36:08;2.10;;;2.00;;
18399;SDS011;9326;49.468;11.008;2022-12-26T06:38:36;3.33;;;2.30;;
18399;SDS011;9326;49.468;11.008;2022-12-26T06:41:03;3.73;;;2.37;;
18399;SDS011;9326;49.468;11.008;2022-12-26T06:43:30;2.60;;;2.20;;
18399;SDS011;9326;49.468;11.008;2022-12-26T06:45:57;3.50;;;2.57;;
18399;SDS011;9326;49.468;11.008;2022-12-26T06:48:25;2.80;;;2.50;;
18399;SDS011;9326;49.468;11.008;2022-12-26T06:50:52;2.40;;;2.20;;
18399;SDS011;9326;49.468;11.008;2022-12-26T06:53:20;2.93;;;2.43;;
18399;SDS011;9326;49.468;11.008;2022-12-26T06:55:47;4.07;;;2.57;;
18399;SDS011;9326;49.468;11.008;2022-12-26T06:58:14;2.40;;;2.20;;
18399;SDS011;9326;49.468;11.008;2022-12-26T07:00:42;2.50;;;2.30;;
18399;SDS011;9326;49.468;11.008;2022-12-26T07:03:09;2.40;;;2.20;;
18399;SDS011;9326;49.468;11.008;2022-12-26T07:05:36;3.47;;;2.27;;
18399;SDS011;9326;49.468;11.008;2022-12-26T07:08:03;3.17;;;2.30;;
18399;SDS011;9326;49.468;11.008;2022-12-26T07:10:34;3.03;;;2.13;;
18399;SDS011;9326;49.468;11.008;2022-12-26T07:13:01;2.47;;;2.10;;
18399;SDS011;9326;49.468;11.008;2022-12-26T07:15:28;3.70;;;2.10;;
18399;SDS011;9326;49.468;11.008;2022-12-26T07:17:55;2.20;;;2.10;;
18399;SDS011;9326;49.468;11.008;2022-12-26T07:20:22;3.30;;;2.07;;
18399;SDS011;9326;49.468;11.008;2022-12-26T07:22:49;3.47;;;2.00;;
18399;SDS011;9326;49.468;11.008;2022-12-26T07:25:16;2.10;;;2.00;;
18399;SDS011;9326;49.468;11.008;2022-12-26T07:27:45;3.40;;;2.20;;
18399;SDS011;9326;49.468;11.008;2022-12-26T07:30:12;5.67;;;2.40;;
18399;SDS011;9326;49.468;11.008;2022-12-26T07:32:39;3.07;;;2.20;;
18399;SDS011;9326;49.468;11.008;2022-12-26T07:35:06;4.17;;;2.10;;
18399;SDS011;9326;49.468;11.008;2022-12-26T07:37:33;2.50;;;2.30;;
18399;SDS011;9326;49.468;11.008;2022-12-26T07:40:00;2.90;;;2.10;;
18399;SDS011;9326;49.468;11.008;2022-12-26T07:42:27;2.50;;;2.30;;
18399;SDS011;9326;49.468;11.008;2022-12-26T07:44:56;3.30;;;2.20;;
18399;SDS011;9326;49.468;11.008;2022-12-26T07:47:23;2.53;;;2.33;;
18399;SDS011;9326;49.468;11.008;2022-12-26T07:49:50;4.40;;;2.60;;
18399;SDS011;9326;49.468;11.008;2022-12-26T07:52:17;2.97;;;2.30;;
18399;SDS011;9326;49.468;11.008;2022-12-26T07:54:45;2.43;;;2.20;;
18399;SDS011;9326;49.468;11.008;2022-12-26T07:57:12;3.53;;;2.17;;
18399;SDS011;9326;49.468;11.008;2022-12-26T07:59:39;5.13;;;2.70;;
18399;SDS011;9326;49.468;11.008;2022-12-26T08:02:09;3.77;;;2.53;;
18399;SDS011;9326;49.468;11.008;2022-12-26T08:04:36;2.50;;;2.30;;
18399;SDS011;9326;49.468;11.008;2022-12-26T08:07:03;2.37;;;2.17;;
18399;SDS011;9326;49.468;11.008;2022-12-26T08:09:30;2.70;;;2.50;;
18399;SDS011;9326;49.468;11.008;2022-12-26T08:11:57;2.20;;;2.10;;
18399;SDS011;9326;49.468;11.008;2022-12-26T08:14:24;3.73;;;2.57;;
18399;SDS011;9326;49.468;11.008;2022-12-26T08:16:51;3.37;;;2.23;;
18399;SDS011;9326;49.468;11.008;2022-12-26T08:19:19;2.73;;;2.53;;
18399;SDS011;9326;49.468;11.008;2022-12-26T08:21:46;2.73;;;2.47;;
18399;SDS011;9326;49.468;11.008;2022-12-26T08:24:13;3.03;;;2.73;;
18399;SDS011;9326;49.468;11.008;2022-12-26T08:26:40;3.90;;;3.20;;
18399;SDS011;9326;49.468;11.008;2022-12-26T08:29:07;3.07;;;2.77;;
18399;SDS011;9326;49.468;11.008;2022-12-26T08:31:35;2.77;;;2.57;;
18399;SDS011;9326;49.468;11.008;2022-12-26T08:34:02;3.40;;;2.70;;
18399;SDS011;9326;49.468;11.008;2022-12-26T08:36:31;3.13;;;2.70;;
18399;SDS011;9326;49.468;11.008;2022-12-26T08:38:58;2.70;;;2.50;;
18399;SDS011;9326;49.468;11.008;2022-12-26T08:41:25;3.23;;;2.93;;
18399;SDS011;9326;49.468;11.008;2022-12-26T08:43:52;3.13;;;2.83;;
18399;SDS011;9326;49.468;11.008;2022-12-26T08:46:19;4.47;;;3.07;;
18399;SDS011;9326;49.468;11.008;2022-12-26T08:48:47;4.93;;;3.00;;
18399;SDS011;9326;49.468;11.008;2022-12-26T08:51:15;3.40;;;3.10;;
18399;SDS011;9326;49.468;11.008;2022-12-26T08:53:43;3.77;;;3.00;;
18399;SDS011;9326;49.468;11.008;2022-12-26T08:56:11;3.47;;;3.00;;
18399;SDS011;9326;49.468;11.008;2022-12-26T08:58:38;4.53;;;2.97;;
18399;SDS011;9326;49.468;11.008;2022-12-26T09:01:06;3.00;;;2.80;;
18399;SDS011;9326;49.468;11.008;2022-12-26T09:03:33;3.30;;;3.00;;
18399;SDS011;9326;49.468;11.008;2022-12-26T09:06:01;3.80;;;2.90;;
18399;SDS011;9326;49.468;11.008;2022-12-26T09:08:28;3.20;;;2.90;;
18399;SDS011;9326;49.468;11.008;2022-12-26T09:10:58;4.20;;;3.00;;
18399;SDS011;9326;49.468;11.008;2022-12-26T09:13:27;3.37;;;3.00;;
18399;SDS011;9326;49.468;11.008;2022-12-26T09:15:54;3.27;;;2.93;;
18399;SDS011;9326;49.468;11.008;2022-12-26T09:18:21;4.13;;;3.20;;
18399;SDS011;9326;49.468;11.008;2022-12-26T09:20:48;2.97;;;2.77;;
18399;SDS011;9326;49.468;11.008;2022-12-26T09:23:15;3.37;;;3.00;;
18399;SDS011;9326;49.468;11.008;2022-12-26T09:25:42;4.10;;;3.00;;
18399;SDS011;9326;49.468;11.008;2022-12-26T09:28:10;3.13;;;2.83;;
18399;SDS011;9326;49.468;11.008;2022-12-26T09:30:37;4.23;;;3.27;;
18399;SDS011;9326;49.468;11.008;2022-12-26T09:33:04;6.53;;;4.53;;
18399;SDS011;9326;49.468;11.008;2022-12-26T09:35:32;6.37;;;4.63;;
18399;SDS011;9326;49.468;11.008;2022-12-26T09:37:59;5.20;;;4.70;;
18399;SDS011;9326;49.468;11.008;2022-12-26T09:40:27;5.47;;;4.40;;
18399;SDS011;9326;49.468;11.008;2022-12-26T09:42:59;6.10;;;4.63;;
18399;SDS011;9326;49.468;11.008;2022-12-26T09:45:31;4.97;;;4.30;;
18399;SDS011;9326;49.468;11.008;2022-12-26T09:48:03;8.93;;;8.13;;
18399;SDS011;9326;49.468;11.008;2022-12-26T09:50:32;5.90;;;5.40;;
18399;SDS011;9326;49.468;11.008;2022-12-26T09:53:02;3.77;;;3.43;;
18399;SDS011;9326;49.468;11.008;2022-12-26T09:55:33;4.23;;;3.40;;
18399;SDS011;9326;49.468;11.008;2022-12-26T09:58:03;3.90;;;3.40;;
18399;SDS011;9326;49.468;11.008;2022-12-26T10:00:32;3.60;;;3.30;;
18399;SDS011;9326;49.468;11.008;2022-12-26T10:03:00;3.27;;;2.90;;
18399;SDS011;9326;49.468;11.008;2022-12-26T10:05:28;4.13;;;3.60;;
18399;SDS011;9326;49.468;11.008;2022-12-26T10:07:58;3.20;;;3.00;;
18399;SDS011;9326;49.468;11.008;2022-12-26T10:10:28;4.33;;;3.40;;
18399;SDS011;9326;49.468;11.008;2022-12-26T10:12:57;4.40;;;3.37;;
18399;SDS011;9326;49.468;11.008;2022-12-26T10:15:33;6.30;;;3.80;;
18399;SDS011;9326;49.468;11.008;2022-12-26T10:18:06;6.80;;;3.93;;
18399;SDS011;9326;49.468;11.008;2022-12-26T10:20:41;4.50;;;4.10;;
18399;SDS011;9326;49.468;11.008;2022-12-26T10:23:14;6.23;;;4.70;;
18399;SDS011;9326;49.468;11.008;2022-12-26T10:25:46;4.43;;;4.03;;
18399;SDS011;9326;49.468;11.008;2022-12-26T10:28:15;4.40;;;3.87;;
18399;SDS011;9326;49.468;11.008;2022-12-26T10:30:43;6.97;;;4.23;;
18399;SDS011;9326;49.468;11.008;2022-12-26T10:33:12;4.43;;;4.03;;
18399;SDS011;9326;49.468;11.008;2022-12-26T10:35:42;6.93;;;4.10;;
18399;SDS011;9326;49.468;11.008;2022-12-26T10:38:10;5.23;;;4.17;;
18399;SDS011;9326;49.468;11.008;2022-12-26T10:40:39;4.30;;;3.90;;
18399;SDS011;9326;49.468;11.008;2022-12-26T10:43:21;4.47;;;4.07;;
18399;SDS011;9326;49.468;11.008;2022-12-26T10:45:52;4.53;;;4.13;;
18399;SDS011;9326;49.468;11.008;2022-12-26T10:48:22;5.00;;;4.20;;
18399;SDS011;9326;49.468;11.008;2022-12-26T10:50:51;4.77;;;4.17;;
18399;SDS011;9326;49.468;11.008;2022-12-26T10:53:18;6.83;;;4.47;;
18399;SDS011;9326;49.468;11.008;2022-12-26T10:55:48;4.90;;;4.50;;
18399;SDS011;9326;49.468;11.008;2022-12-26T10:58:16;4.60;;;4.10;;
18399;SDS011;9326;49.468;11.008;2022-12-26T11:00:43;5.07;;;4.57;;
18399;SDS011;9326;49.468;11.008;2022-12-26T11:03:12;4.43;;;3.93;;
18399;SDS011;9326;49.468;11.008;2022-12-26T11:05:40;7.73;;;4.60;;
18399;SDS011;9326;49.468;11.008;2022-12-26T11:08:08;4.97;;;4.47;;
18399;SDS011;9326;49.468;11.008;2022-12-26T11:10:41;4.90;;;4.50;;
18399;SDS011;9326;49.468;11.008;2022-12-26T11:13:16;4.73;;;4.20;;
18399;SDS011;9326;49.468;11.008;2022-12-26T11:15:45;5.90;;;4.40;;
18399;SDS011;9326;49.468;11.008;2022-12-26T11:18:17;4.73;;;4.33;;
18399;SDS011;9326;49.468;11.008;2022-12-26T11:20:45;6.33;;;4.60;;
18399;SDS011;9326;49.468;11.008;2022-12-26T11:23:23;5.17;;;4.07;;
18399;SDS011;9326;49.468;11.008;2022-12-26T11:25:51;6.10;;;4.60;;
18399;SDS011;9326;49.468;11.008;2022-12-26T11:28:21;14.47;;;13.10;;
18399;SDS011;9326;49.468;11.008;2022-12-26T11:30:49;14.90;;;13.60;;
18399;SDS011;9326;49.468;11.008;2022-12-26T11:33:20;7.40;;;6.70;;
18399;SDS011;9326;49.468;11.008;2022-12-26T11:35:49;20.97;;;14.97;;
18399;SDS011;9326;49.468;11.008;2022-12-26T11:38:17;12.43;;;9.77;;
18399;SDS011;9326;49.468;11.008;2022-12-26T11:41:14;5.83;;;5.03;;
18399;SDS011;9326;49.468;11.008;2022-12-26T11:43:58;5.63;;;5.00;;
18399;SDS011;9326;49.468;11.008;2022-12-26T11:46:34;3.57;;;3.23;;
18399;SDS011;9326;49.468;11.008;2022-12-26T11:49:02;3.20;;;2.90;;
18399;SDS011;9326;49.468;11.008;2022-12-26T11:51:33;4.83;;;3.03;;
18399;SDS011;9326;49.468;11.008;2022-12-26T11:54:11;3.67;;;2.77;;
18399;SDS011;9326;49.468;11.008;2022-12-26T11:56:40;3.30;;;3.00;;
18399;SDS011;9326;49.468;11.008;2022-12-26T11:59:11;3.30;;;2.70;;
18399;SDS011;9326;49.468;11.008;2022-12-26T12:01:41;3.33;;;2.83;;
18399;SDS011;9326;49.468;11.008;2022-12-26T12:04:08;3.93;;;2.97;;
18399;SDS011;9326;49.468;11.008;2022-12-26T12:06:39;3.83;;;2.97;;
18399;SDS011;9326;49.468;11.008;2022-12-26T12:09:12;3.47;;;3.17;;
18399;SDS011;9326;49.468;11.008;2022-12-26T12:11:42;4.00;;;2.90;;
18399;SDS011;9326;49.468;11.008;2022-12-26T12:14:26;4.53;;;2.73;;
18399;SDS011;9326;49.468;11.008;2022-12-26T12:16:59;3.90;;;3.50;;
18399;SDS011;9326;49.468;11.008;2022-12-26T12:19:37;3.60;;;2.80;;
18399;SDS011;9326;49.468;11.008;2022-12-26T12:22:09;3.53;;;2.93;;
18399;SDS011;9326;49.468;11.008;2022-12-26T12:24:41;3.37;;;2.60;;
18399;SDS011;9326;49.468;11.008;2022-12-26T12:27:12;4.70;;;2.70;;
18399;SDS011;9326;49.468;11.008;2022-12-26T12:32:27;3.27;;;2.27;;
18399;SDS011;9326;49.468;11.008;2022-12-26T12:34:58;2.20;;;1.97;;
18399;SDS011;9326;49.468;11.008;2022-12-26T12:37:32;2.90;;;2.60;;
18399;SDS011;9326;49.468;11.008;2022-12-26T12:40:03;3.60;;;3.13;;
18399;SDS011;9326;49.468;11.008;2022-12-26T12:42:42;2.07;;;1.90;;
18399;SDS011;9326;49.468;11.008;2022-12-26T12:45:22;2.50;;;2.30;;
18399;SDS011;9326;49.468;11.008;2022-12-26T12:47:54;2.73;;;2.07;;
18399;SDS011;9326;49.468;11.008;2022-12-26T12:50:25;2.20;;;2.00;;
18399;SDS011;9326;49.468;11.008;2022-12-26T12:52:56;2.63;;;1.90;;
18399;SDS011;9326;49.468;11.008;2022-12-26T12:55:41;2.00;;;1.90;;
18399;SDS011;9326;49.468;11.008;2022-12-26T12:58:14;3.00;;;1.80;;
18399;SDS011;9326;49.468;11.008;2022-12-26T13:00:43;1.97;;;1.87;;
18399;SDS011;9326;49.468;11.008;2022-12-26T13:03:11;2.17;;;1.70;;
18399;SDS011;9326;49.468;11.008;2022-12-26T13:05:42;2.07;;;1.67;;
18399;SDS011;9326;49.468;11.008;2022-12-26T13:08:11;2.67;;;1.67;;
18399;SDS011;9326;49.468;11.008;2022-12-26T13:10:41;1.70;;;1.60;;
18399;SDS011;9326;49.468;11.008;2022-12-26T13:13:12;1.83;;;1.70;;
18399;SDS011;9326;49.468;11.008;2022-12-26T13:15:44;3.83;;;3.17;;
18399;SDS011;9326;49.468;11.008;2022-12-26T13:18:14;11.47;;;7.37;;
18399;SDS011;9326;49.468;11.008;2022-12-26T13:20:44;2.60;;;2.30;;
18399;SDS011;9326;49.468;11.008;2022-12-26T13:23:14;2.77;;;2.03;;
18399;SDS011;9326;49.468;11.008;2022-12-26T13:26:03;2.30;;;1.80;;
18399;SDS011;9326;49.468;11.008;2022-12-26T13:28:32;2.10;;;1.77;;
18399;SDS011;9326;49.468;11.008;2022-12-26T13:31:01;2.07;;;1.57;;
18399;SDS011;9326;49.468;11.008;2022-12-26T13:33:28;2.30;;;2.10;;
18399;SDS011;9326;49.468;11.008;2022-12-26T13:35:57;1.60;;;1.50;;
18399;SDS011;9326;49.468;11.008;2022-12-26T13:38:25;1.80;;;1.70;;
18399;SDS011;9326;49.468;11.008;2022-12-26T13:41:09;2.00;;;1.90;;
18399;SDS011;9326;49.468;11.008;2022-12-26T13:44:02;1.67;;;1.57;;
18399;SDS011;9326;49.468;11.008;2022-12-26T13:46:52;2.07;;;1.87;;
18399;SDS011;9326;49.468;11.008;2022-12-26T13:49:27;3.17;;;1.90;;
18399;SDS011;9326;49.468;11.008;2022-12-26T13:51:55;2.10;;;1.90;;
18399;SDS011;9326;49.468;11.008;2022-12-26T13:54:23;1.50;;;1.40;;
18399;SDS011;9326;49.468;11.008;2022-12-26T14:00:07;2.67;;;1.70;;
18399;SDS011;9326;49.468;11.008;2022-12-26T14:02:47;1.70;;;1.60;;
18399;SDS011;9326;49.468;11.008;2022-12-26T14:05:20;1.77;;;1.67;;
18399;SDS011;9326;49.468;11.008;2022-12-26T14:07:51;2.00;;;1.70;;
18399;SDS011;9326;49.468;11.008;2022-12-26T14:10:23;2.67;;;1.80;;
18399;SDS011;9326;49.468;11.008;2022-12-26T14:12:56;2.87;;;1.60;;
18399;SDS011;9326;49.468;11.008;2022-12-26T14:15:32;2.73;;;1.93;;
18399;SDS011;9326;49.468;11.008;2022-12-26T14:18:09;2.90;;;1.67;;
18399;SDS011;9326;49.468;11.008;2022-12-26T14:20:40;1.67;;;1.40;;
18399;SDS011;9326;49.468;11.008;2022-12-26T14:23:17;2.60;;;1.70;;
18399;SDS011;9326;49.468;11.008;2022-12-26T14:25:49;1.87;;;1.63;;
18399;SDS011;9326;49.468;11.008;2022-12-26T14:28:19;2.33;;;2.13;;
18399;SDS011;9326;49.468;11.008;2022-12-26T14:30:51;1.83;;;1.73;;
18399;SDS011;9326;49.468;11.008;2022-12-26T14:33:24;1.70;;;1.60;;
18399;SDS011;9326;49.468;11.008;2022-12-26T14:35:55;2.27;;;1.90;;
18399;SDS011;9326;49.468;11.008;2022-12-26T14:38:27;4.13;;;3.50;;
18399;SDS011;9326;49.468;11.008;2022-12-26T14:40:57;3.90;;;2.27;;
18399;SDS011;9326;49.468;11.008;2022-12-26T14:48:56;2.77;;;2.53;;
18399;SDS011;9326;49.468;11.008;2022-12-26T14:51:36;1.77;;;1.63;;
18399;SDS011;9326;49.468;11.008;2022-12-26T14:54:14;1.83;;;1.73;;
18399;SDS011;9326;49.468;11.008;2022-12-26T14:56:46;1.80;;;1.70;;
18399;SDS011;9326;49.468;11.008;2022-12-26T14:59:23;3.20;;;2.00;;
18399;SDS011;9326;49.468;11.008;2022-12-26T15:01:59;2.20;;;1.73;;
18399;SDS011;9326;49.468;11.008;2022-12-26T15:07:27;1.87;;;1.70;;
18399;SDS011;9326;49.468;11.008;2022-12-26T15:12:58;2.50;;;1.83;;
18399;SDS011;9326;49.468;11.008;2022-12-26T15:15:31;2.17;;;1.70;;
18399;SDS011;9326;49.468;11.008;2022-12-26T15:20:55;2.73;;;2.20;;
18399;SDS011;9326;49.468;11.008;2022-12-26T15:29:14;2.40;;;2.20;;
18399;SDS011;9326;49.468;11.008;2022-12-26T15:31:46;2.10;;;1.90;;
18399;SDS011;9326;49.468;11.008;2022-12-26T15:34:34;2.20;;;2.00;;
18399;SDS011;9326;49.468;11.008;2022-12-26T15:37:04;2.57;;;1.80;;
18399;SDS011;9326;49.468;11.008;2022-12-26T15:39:36;2.30;;;2.10;;
18399;SDS011;9326;49.468;11.008;2022-12-26T15:42:11;4.40;;;3.13;;
18399;SDS011;9326;49.468;11.008;2022-12-26T15:44:46;4.67;;;3.13;;
18399;SDS011;9326;49.468;11.008;2022-12-26T15:47:17;3.33;;;2.80;;
18399;SDS011;9326;49.468;11.008;2022-12-26T15:49:47;3.80;;;3.37;;
18399;SDS011;9326;49.468;11.008;2022-12-26T15:52:19;4.00;;;3.60;;
18399;SDS011;9326;49.468;11.008;2022-12-26T15:55:02;4.00;;;3.60;;
18399;SDS011;9326;49.468;11.008;2022-12-26T15:57:35;2.70;;;2.50;;
18399;SDS011;9326;49.468;11.008;2022-12-26T16:00:10;4.67;;;3.53;;
18399;SDS011;9326;49.468;11.008;2022-12-26T16:02:43;4.83;;;3.80;;
18399;SDS011;9326;49.468;11.008;2022-12-26T16:08:09;7.97;;;5.80;;
18399;SDS011;9326;49.468;11.008;2022-12-26T16:10:44;7.30;;;5.63;;
18399;SDS011;9326;49.468;11.008;2022-12-26T16:13:14;7.10;;;5.93;;
18399;SDS011;9326;49.468;11.008;2022-12-26T16:15:48;7.33;;;4.70;;
18399;SDS011;9326;49.468;11.008;2022-12-26T16:18:17;6.63;;;4.03;;
18399;SDS011;9326;49.468;11.008;2022-12-26T16:20:45;5.80;;;4.37;;
18399;SDS011;9326;49.468;11.008;2022-12-26T16:23:30;3.37;;;2.40;;
18399;SDS011;9326;49.468;11.008;2022-12-26T16:25:58;2.90;;;2.57;;
18399;SDS011;9326;49.468;11.008;2022-12-26T16:28:25;3.40;;;2.80;;
18399;SDS011;9326;49.468;11.008;2022-12-26T16:30:54;2.80;;;2.60;;
18399;SDS011;9326;49.468;11.008;2022-12-26T16:33:21;4.20;;;3.90;;
18399;SDS011;9326;49.468;11.008;2022-12-26T16:35:49;5.87;;;4.70;;
18399;SDS011;9326;49.468;11.008;2022-12-26T16:38:17;4.00;;;3.53;;
18399;SDS011;9326;49.468;11.008;2022-12-26T16:40:46;10.30;;;8.07;;
18399;SDS011;9326;49.468;11.008;2022-12-26T16:43:23;16.70;;;12.00;;
18399;SDS011;9326;49.468;11.008;2022-12-26T16:45:51;8.27;;;7.33;;
18399;SDS011;9326;49.468;11.008;2022-12-26T16:48:21;7.80;;;7.00;;
18399;SDS011;9326;49.468;11.008;2022-12-26T16:50:48;5.30;;;4.80;;
18399;SDS011;9326;49.468;11.008;2022-12-26T16:53:16;5.80;;;4.77;;
18399;SDS011;9326;49.468;11.008;2022-12-26T16:55:44;5.57;;;5.07;;
18399;SDS011;9326;49.468;11.008;2022-12-26T17:00:59;6.00;;;5.13;;
18399;SDS011;9326;49.468;11.008;2022-12-26T17:03:31;8.83;;;6.80;;
18399;SDS011;9326;49.468;11.008;2022-12-26T17:06:03;7.47;;;6.27;;
18399;SDS011;9326;49.468;11.008;2022-12-26T17:08:31;5.27;;;4.80;;
18399;SDS011;9326;49.468;11.008;2022-12-26T17:10:58;4.53;;;4.13;;
18399;SDS011;9326;49.468;11.008;2022-12-26T17:13:25;4.50;;;3.97;;
18399;SDS011;9326;49.468;11.008;2022-12-26T17:15:54;4.23;;;3.37;;
18399;SDS011;9326;49.468;11.008;2022-12-26T17:18:34;5.43;;;4.37;;
18399;SDS011;9326;49.468;11.008;2022-12-26T17:21:13;6.47;;;5.20;;
18399;SDS011;9326;49.468;11.008;2022-12-26T17:23:40;5.23;;;4.73;;
18399;SDS011;9326;49.468;11.008;2022-12-26T17:26:18;9.73;;;8.23;;
18399;SDS011;9326;49.468;11.008;2022-12-26T17:28:46;6.20;;;4.90;;
18399;SDS011;9326;49.468;11.008;2022-12-26T17:31:15;8.03;;;7.03;;
18399;SDS011;9326;49.468;11.008;2022-12-26T17:33:44;9.20;;;7.60;;
18399;SDS011;9326;49.468;11.008;2022-12-26T17:36:12;14.80;;;13.07;;
18399;SDS011;9326;49.468;11.008;2022-12-26T17:38:40;7.53;;;6.70;;
18399;SDS011;9326;49.468;11.008;2022-12-26T17:41:08;4.50;;;4.10;;
18399;SDS011;9326;49.468;11.008;2022-12-26T17:43:38;4.70;;;4.30;;
18399;SDS011;9326;49.468;11.008;2022-12-26T17:46:06;6.37;;;5.77;;
18399;SDS011;9326;49.468;11.008;2022-12-26T17:48:33;3.40;;;3.10;;
18399;SDS011;9326;49.468;11.008;2022-12-26T17:51:02;3.73;;;2.77;;
18399;SDS011;9326;49.468;11.008;2022-12-26T17:53:31;4.27;;;3.37;;
18399;SDS011;9326;49.468;11.008;2022-12-26T17:55:59;4.80;;;4.17;;
18399;SDS011;9326;49.468;11.008;2022-12-26T17:58:27;4.80;;;2.93;;
18399;SDS011;9326;49.468;11.008;2022-12-26T18:00:54;3.30;;;2.90;;
18399;SDS011;9326;49.468;11.008;2022-12-26T18:03:21;3.67;;;3.23;;
18399;SDS011;9326;49.468;11.008;2022-12-26T18:05:48;4.73;;;4.20;;
18399;SDS011;9326;49.468;11.008;2022-12-26T18:08:23;5.53;;;4.63;;
18399;SDS011;9326;49.468;11.008;2022-12-26T18:10:51;4.40;;;3.73;;
18399;SDS011;9326;49.468;11.008;2022-12-26T18:13:18;4.57;;;4.17;;
18399;SDS011;9326;49.468;11.008;2022-12-26T18:15:45;9.97;;;7.43;;
18399;SDS011;9326;49.468;11.008;2022-12-26T18:18:15;5.17;;;4.57;;
18399;SDS011;9326;49.468;11.008;2022-12-26T18:20:46;3.27;;;2.30;;
18399;SDS011;9326;49.468;11.008;2022-12-26T18:23:14;4.60;;;4.20;;
18399;SDS011;9326;49.468;11.008;2022-12-26T18:25:43;3.50;;;3.20;;
18399;SDS011;9326;49.468;11.008;2022-12-26T18:28:10;4.10;;;3.07;;
18399;SDS011;9326;49.468;11.008;2022-12-26T18:30:38;3.87;;;3.57;;
18399;SDS011;9326;49.468;11.008;2022-12-26T18:33:05;2.63;;;2.43;;
18399;SDS011;9326;49.468;11.008;2022-12-26T18:35:32;3.63;;;2.53;;
18399;SDS011;9326;49.468;11.008;2022-12-26T18:37:59;4.23;;;3.83;;
18399;SDS011;9326;49.468;11.008;2022-12-26T18:40:27;8.93;;;8.03;;
18399;SDS011;9326;49.468;11.008;2022-12-26T18:42:56;14.10;;;12.07;;
18399;SDS011;9326;49.468;11.008;2022-12-26T18:45:23;5.77;;;4.87;;
18399;SDS011;9326;49.468;11.008;2022-12-26T18:47:50;3.60;;;2.70;;
18399;SDS011;9326;49.468;11.008;2022-12-26T18:50:17;8.30;;;7.50;;
18399;SDS011;9326;49.468;11.008;2022-12-26T18:52:45;17.00;;;13.83;;
18399;SDS011;9326;49.468;11.008;2022-12-26T18:55:12;12.70;;;10.40;;
18399;SDS011;9326;49.468;11.008;2022-12-26T18:57:39;21.10;;;18.90;;
18399;SDS011;9326;49.468;11.008;2022-12-26T19:00:09;8.73;;;7.80;;
18399;SDS011;9326;49.468;11.008;2022-12-26T19:02:36;2.40;;;2.20;;
18399;SDS011;9326;49.468;11.008;2022-12-26T19:05:04;3.23;;;1.83;;
18399;SDS011;9326;49.468;11.008;2022-12-26T19:07:32;2.37;;;1.50;;
18399;SDS011;9326;49.468;11.008;2022-12-26T19:09:59;2.40;;;1.10;;
18399;SDS011;9326;49.468;11.008;2022-12-26T19:12:26;1.20;;;1.10;;
18399;SDS011;9326;49.468;11.008;2022-12-26T19:14:53;0.83;;;0.60;;
18399;SDS011;9326;49.468;11.008;2022-12-26T19:17:21;0.90;;;0.70;;
18399;SDS011;9326;49.468;11.008;2022-12-26T19:19:48;0.77;;;0.77;;
18399;SDS011;9326;49.468;11.008;2022-12-26T19:22:15;1.03;;;0.80;;
18399;SDS011;9326;49.468;11.008;2022-12-26T19:24:43;0.57;;;0.57;;
18399;SDS011;9326;49.468;11.008;2022-12-26T19:27:10;0.70;;;0.70;;
18399;SDS011;9326;49.468;11.008;2022-12-26T19:29:37;0.90;;;0.70;;
18399;SDS011;9326;49.468;11.008;2022-12-26T19:32:04;1.37;;;0.80;;
18399;SDS011;9326;49.468;11.008;2022-12-26T19:34:32;0.63;;;0.53;;
18399;SDS011;9326;49.468;11.008;2022-12-26T19:36:59;2.40;;;0.90;;
18399;SDS011;9326;49.468;11.008;2022-12-26T19:39:26;1.40;;;0.90;;
18399;SDS011;9326;49.468;11.008;2022-12-26T19:41:54;1.33;;;1.13;;
18399;SDS011;9326;49.468;11.008;2022-12-26T19:44:21;2.10;;;1.00;;
18399;SDS011;9326;49.468;11.008;2022-12-26T19:46:48;1.07;;;1.00;;
18399;SDS011;9326;49.468;11.008;2022-12-26T19:49:15;2.97;;;1.20;;
18399;SDS011;9326;49.468;11.008;2022-12-26T19:51:43;1.57;;;0.90;;
18399;SDS011;9326;49.468;11.008;2022-12-26T19:54:11;1.47;;;0.90;;
18399;SDS011;9326;49.468;11.008;2022-12-26T19:56:38;1.33;;;1.00;;
18399;SDS011;9326;49.468;11.008;2022-12-26T19:59:05;1.10;;;1.00;;
18399;SDS011;9326;49.468;11.008;2022-12-26T20:01:32;1.20;;;1.20;;
18399;SDS011;9326;49.468;11.008;2022-12-26T20:04:00;2.10;;;1.10;;
18399;SDS011;9326;49.468;11.008;2022-12-26T20:06:28;1.60;;;1.33;;
18399;SDS011;9326;49.468;11.008;2022-12-26T20:09:02;1.63;;;1.23;;
18399;SDS011;9326;49.468;11.008;2022-12-26T20:11:30;1.63;;;1.10;;
18399;SDS011;9326;49.468;11.008;2022-12-26T20:13:57;2.77;;;1.67;;
18399;SDS011;9326;49.468;11.008;2022-12-26T20:16:25;1.50;;;1.03;;
18399;SDS011;9326;49.468;11.008;2022-12-26T20:18:52;1.97;;;1.17;;
18399;SDS011;9326;49.468;11.008;2022-12-26T20:21:19;4.80;;;1.30;;
18399;SDS011;9326;49.468;11.008;2022-12-26T20:23:47;2.27;;;1.60;;
18399;SDS011;9326;49.468;11.008;2022-12-26T20:26:17;2.43;;;1.90;;
18399;SDS011;9326;49.468;11.008;2022-12-26T20:28:44;1.87;;;1.43;;
18399;SDS011;9326;49.468;11.008;2022-12-26T20:31:12;2.80;;;2.10;;
18399;SDS011;9326;49.468;11.008;2022-12-26T20:33:40;1.23;;;1.20;;
18399;SDS011;9326;49.468;11.008;2022-12-26T20:36:08;1.13;;;1.00;;